Time;durP1;ratioP1;P1;durP2;ratioP2;P2;SDS_P1;SDS_P2;PMS_P1;PMS_P2;Temp;Humidity;BMP_temperature;BMP_pressure;BME280_temperature;BME280_humidity;BME280_pressure;Samples;Min_cycle;Max_cycle;Signal;HPM_P1;HPM_P2
2020/12/05 00:00:46;;;;;;;28.12;14.93;;;;;;;2.52;73.81;100339.74;352808;113;1962010;-74
2020/12/05 00:01:51;;;;;;;28.33;14.14;;;;;;;2.53;73.75;100335.25;354946;113;1961953;-73
2020/12/05 00:02:57;;;;;;;26.89;14.03;;;;;;;2.56;73.64;100345.63;359316;113;1965012;-73
2020/12/05 00:04:02;;;;;;;26.58;13.82;;;;;;;2.55;73.74;100343.95;356569;113;1961942;-74
2020/12/05 00:05:07;;;;;;;29.38;15.51;;;;;;;2.55;73.66;100342.13;357109;113;1964030;-74
2020/12/05 00:06:13;;;;;;;30.52;14.21;;;;;;;2.59;73.54;100337.35;356084;113;1961996;-74
2020/12/05 00:07:19;;;;;;;27.99;12.94;;;;;;;2.59;73.30;100340.89;327943;112;2462932;-74
2020/12/05 00:08:24;;;;;;;28.63;14.12;;;;;;;2.58;73.32;100344.52;329671;113;1962007;-75
2020/12/05 00:09:29;;;;;;;30.42;14.84;;;;;;;2.60;73.25;100344.39;351236;112;1962016;-74
2020/12/05 00:10:37;;;;;;;33.01;14.52;;;;;;;2.54;73.38;100347.59;354494;113;1962057;-74
2020/12/05 00:11:43;;;;;;;34.64;15.72;;;;;;;2.55;73.30;100350.13;306961;113;2873016;-74
2020/12/05 00:12:49;;;;;;;28.66;14.55;;;;;;;2.49;73.42;100349.82;330078;111;1961966;-74
2020/12/05 00:13:55;;;;;;;30.92;14.58;;;;;;;2.44;73.57;100350.26;346705;114;1962014;-74
2020/12/05 00:15:00;;;;;;;29.01;14.42;;;;;;;2.44;73.62;100352.09;345391;114;1961868;-74
2020/12/05 00:16:05;;;;;;;31.28;14.67;;;;;;;2.44;73.65;100349.42;343890;115;1962017;-74
2020/12/05 00:17:11;;;;;;;31.87;15.39;;;;;;;2.46;73.47;100360.77;345603;115;1962016;-74
2020/12/05 00:18:18;;;;;;;30.76;14.93;;;;;;;2.41;73.62;100356.70;305853;115;2734976;-73
2020/12/05 00:19:23;;;;;;;29.47;15.47;;;;;;;2.42;73.69;100362.87;343727;115;1965029;-75
2020/12/05 00:20:31;;;;;;;31.91;14.95;;;;;;;2.37;73.88;100349.94;345849;115;1962002;-73
2020/12/05 00:21:37;;;;;;;36.07;15.70;;;;;;;2.36;74.01;100350.94;307270;115;2681995;-74
2020/12/05 00:22:42;;;;;;;30.47;15.89;;;;;;;2.39;73.98;100360.48;319040;115;1961973;-74
2020/12/05 00:23:48;;;;;;;37.66;15.28;;;;;;;2.38;74.03;100354.31;345767;115;1961950;-74
2020/12/05 00:24:53;;;;;;;30.57;14.19;;;;;;;2.35;74.14;100354.56;343660;115;1962987;-74
2020/12/05 00:25:58;;;;;;;34.11;15.44;;;;;;;2.40;74.04;100351.49;344541;115;1961990;-74
2020/12/05 00:27:04;;;;;;;29.38;15.97;;;;;;;2.39;74.13;100355.15;345302;115;1962022;-73
2020/12/05 00:28:10;;;;;;;32.36;14.33;;;;;;;2.40;74.07;100354.16;345139;115;1963069;-75
2020/12/05 00:29:25;;;;;;;28.53;14.12;;;;;;;2.39;74.07;100358.66;329161;115;2944007;-74
2020/12/05 00:30:31;;;;;;;29.77;14.16;;;;;;;2.41;73.99;100350.53;345567;109;2313001;-74
2020/12/05 00:31:36;;;;;;;32.20;14.28;;;;;;;2.37;74.15;100355.27;341905;110;1962043;-74
2020/12/05 00:32:41;;;;;;;33.04;15.76;;;;;;;2.38;74.22;100366.78;355255;111;1961964;-73
2020/12/05 00:33:47;;;;;;;28.66;13.87;;;;;;;2.39;74.27;100355.15;363642;109;1963048;-73
2020/12/05 00:34:52;;;;;;;28.99;13.92;;;;;;;2.41;74.21;100356.70;362363;109;1962031;-74
2020/12/05 00:35:58;;;;;;;29.79;15.21;;;;;;;2.38;74.33;100356.98;364723;109;1961965;-73
2020/12/05 00:37:03;;;;;;;32.41;16.47;;;;;;;2.40;74.35;100359.49;361137;109;1962987;-74
2020/12/05 00:38:09;;;;;;;31.24;14.64;;;;;;;2.38;74.39;100364.98;322285;109;2671990;-74
2020/12/05 00:39:15;;;;;;;31.98;15.44;;;;;;;2.46;74.36;100352.77;343542;109;1962002;-74
2020/12/05 00:40:22;;;;;;;36.22;17.38;;;;;;;2.45;74.32;100357.27;363125;109;1963986;-74
2020/12/05 00:41:28;;;;;;;34.82;15.88;;;;;;;2.45;74.23;100359.92;363157;109;1961977;-74
2020/12/05 00:42:34;;;;;;;30.37;17.18;;;;;;;2.47;74.27;100363.31;321529;111;2717914;-74
2020/12/05 00:43:39;;;;;;;31.16;15.88;;;;;;;2.50;74.13;100371.03;344001;109;1962023;-73
2020/12/05 00:44:44;;;;;;;29.76;15.07;;;;;;;2.53;74.05;100364.58;363231;109;1961973;-74
2020/12/05 00:45:50;;;;;;;34.42;16.39;;;;;;;2.49;74.15;100368.48;363807;109;1965027;-73
2020/12/05 00:46:55;;;;;;;30.87;15.31;;;;;;;2.52;74.04;100376.24;363162;109;1962007;-74
2020/12/05 00:48:02;;;;;;;31.20;14.88;;;;;;;2.49;74.10;100371.16;361611;109;1963978;-74
2020/12/05 00:49:08;;;;;;;31.84;15.31;;;;;;;2.48;74.24;100372.15;334439;109;1962003;-74
2020/12/05 00:50:15;;;;;;;34.98;15.82;;;;;;;2.50;74.12;100376.36;363793;109;1963016;-74
2020/12/05 00:51:32;;;;;;;31.21;15.19;;;;;;;2.52;74.08;100373.58;363235;109;1964020;-74
2020/12/05 00:52:37;;;;;;;32.99;15.63;;;;;;;2.50;74.20;100368.37;334642;110;2462933;-74
2020/12/05 00:53:44;;;;;;;33.14;15.52;;;;;;;2.53;74.27;100369.91;361518;111;1962016;-74
2020/12/05 00:54:49;;;;;;;31.54;15.74;;;;;;;2.57;74.12;100366.84;361445;111;1962014;-73
2020/12/05 00:55:55;;;;;;;38.56;15.58;;;;;;;2.58;74.03;100373.02;356034;111;1964084;-74
2020/12/05 00:57:01;;;;;;;39.40;15.17;;;;;;;2.53;74.15;100362.75;356747;112;1962986;-74
2020/12/05 00:58:07;;;;;;;35.16;15.58;;;;;;;2.50;74.25;100363.03;317744;112;2763972;-73
2020/12/05 00:59:12;;;;;;;33.16;16.09;;;;;;;2.53;74.24;100376.09;325644;112;1961922;-74
2020/12/05 01:00:18;;;;;;;33.09;16.34;;;;;;;2.55;74.09;100367.96;357295;112;1961988;-74
2020/12/05 01:01:24;;;;;;;31.52;15.62;;;;;;;2.53;74.20;100361.91;359411;111;1961843;-75
2020/12/05 01:02:29;;;;;;;29.42;14.74;;;;;;;2.53;74.16;100367.25;360697;111;1961973;-75
2020/12/05 01:03:35;;;;;;;36.28;17.53;;;;;;;2.50;74.39;100367.53;362606;110;1962281;-74
2020/12/05 01:04:41;;;;;;;36.82;15.26;;;;;;;2.51;74.31;100363.87;311338;110;2866974;-74
2020/12/05 01:05:46;;;;;;;34.54;15.73;;;;;;;2.51;74.43;100361.20;329609;112;1962002;-74
2020/12/05 01:06:51;;;;;;;34.41;16.21;;;;;;;2.51;74.29;100362.04;353493;112;1963049;-74
2020/12/05 01:07:56;;;;;;;31.28;15.84;;;;;;;2.49;74.42;100357.82;353563;112;1961980;-75
2020/12/05 01:09:03;;;;;;;36.70;17.91;;;;;;;2.50;74.45;100355.03;353067;112;1961992;-74
2020/12/05 01:10:09;;;;;;;35.35;16.44;;;;;;;2.41;74.74;100356.70;353601;112;1961945;-74
2020/12/05 01:11:17;;;;;;;36.31;15.99;;;;;;;2.28;75.27;100348.11;305804;112;2877027;-75
2020/12/05 01:12:24;;;;;;;33.51;16.55;;;;;;;2.35;75.11;100343.89;348286;114;1961996;-74
2020/12/05 01:13:29;;;;;;;38.14;16.32;;;;;;;2.37;74.87;100346.44;329763;112;2304967;-73
2020/12/05 01:14:35;;;;;;;35.06;15.44;;;;;;;2.38;74.89;100351.65;346868;113;1961989;-74
2020/12/05 01:15:41;;;;;;;32.28;15.64;;;;;;;2.41;74.79;100361.20;350453;114;1962963;-74
2020/12/05 01:16:48;;;;;;;32.49;17.39;;;;;;;2.41;74.78;100355.87;345540;115;1961974;-74
2020/12/05 01:17:54;;;;;;;35.91;16.48;;;;;;;2.44;74.77;100357.41;354740;112;1962020;-74
2020/12/05 01:19:00;;;;;;;36.14;16.36;;;;;;;2.41;74.80;100359.37;350259;113;1962040;-74
2020/12/05 01:20:07;;;;;;;36.69;16.87;;;;;;;2.42;74.86;100366.37;349536;113;1961990;-73
2020/12/05 01:21:17;;;;;;;36.13;16.63;;;;;;;2.44;74.76;100360.92;346008;115;1963986;-75
2020/12/05 01:22:23;;;;;;;32.47;16.81;;;;;;;2.45;74.80;100362.59;350842;113;1961995;-74
2020/12/05 01:23:28;;;;;;;32.57;16.22;;;;;;;2.44;74.83;100360.92;333914;111;1960914;-74
2020/12/05 01:24:34;;;;;;;33.91;17.59;;;;;;;2.46;74.81;100358.09;355121;111;1962019;-75
2020/12/05 01:25:40;;;;;;;35.73;15.80;;;;;;;2.50;74.71;100360.36;356508;111;1962049;-73
2020/12/05 01:26:47;;;;;;;32.43;16.69;;;;;;;2.54;74.56;100369.80;355672;112;1961970;-74
2020/12/05 01:27:52;;;;;;;34.76;16.91;;;;;;;2.58;74.27;100362.35;312893;114;2772973;-73
2020/12/05 01:28:58;;;;;;;34.32;15.93;;;;;;;2.56;74.26;100361.64;331230;111;1961913;-74
2020/12/05 01:30:04;;;;;;;36.64;16.76;;;;;;;2.49;74.33;100357.82;355356;111;1962050;-74
2020/12/05 01:31:10;;;;;;;33.41;16.18;;;;;;;2.52;74.44;100363.75;356818;111;1962918;-74
2020/12/05 01:32:17;;;;;;;37.78;15.92;;;;;;;2.54;74.38;100371.59;337797;111;2953981;-74
2020/12/05 01:33:22;;;;;;;35.53;15.82;;;;;;;2.54;74.35;100371.59;356664;111;1961970;-74
2020/12/05 01:34:28;;;;;;;39.17;16.80;;;;;;;2.52;74.43;100365.58;355461;111;1963967;-74
2020/12/05 01:35:35;;;;;;;36.74;16.80;;;;;;;2.51;74.53;100361.20;354516;111;1962090;-73
2020/12/05 01:36:46;;;;;;;36.57;17.30;;;;;;;2.52;74.59;100361.08;335283;111;2331971;-74
2020/12/05 01:37:51;;;;;;;38.09;15.93;;;;;;;2.52;74.52;100366.41;322767;111;1963026;-74
2020/12/05 01:38:56;;;;;;;39.31;16.67;;;;;;;2.51;74.62;100370.04;336323;111;1962015;-74
2020/12/05 01:40:02;;;;;;;43.29;16.58;;;;;;;2.54;74.46;100372.45;355511;111;1963039;-74
2020/12/05 01:41:10;;;;;;;42.88;17.00;;;;;;;2.54;74.44;100366.26;355388;111;1962044;-74
2020/12/05 01:42:17;;;;;;;32.65;16.85;;;;;;;2.53;74.55;100372.58;329616;111;1961904;-73
2020/12/05 01:43:23;;;;;;;37.14;17.13;;;;;;;2.52;74.74;100365.58;356073;111;1962003;-74
2020/12/05 01:44:31;;;;;;;34.81;17.01;;;;;;;2.51;74.76;100374.53;354836;111;1963781;-74
2020/12/05 01:45:37;;;;;;;41.72;18.33;;;;;;;2.55;74.70;100367.96;354869;111;1962953;-74
2020/12/05 01:46:45;;;;;;;41.27;17.45;;;;;;;2.57;74.61;100368.67;355279;111;1962112;-73
2020/12/05 01:47:51;;;;;;;40.53;16.46;;;;;;;2.58;74.58;100371.19;357002;111;1961906;-74
2020/12/05 01:48:57;;;;;;;32.31;15.83;;;;;;;2.56;74.63;100372.30;355657;111;1963449;-74
2020/12/05 01:50:02;;;;;;;36.69;16.97;;;;;;;2.58;74.87;100373.02;356665;111;1962944;-73
2020/12/05 01:51:13;;;;;;;39.48;17.59;;;;;;;2.61;74.66;100368.24;358164;111;1962009;-75
2020/12/05 01:52:30;;;;;;;40.23;18.04;;;;;;;2.67;74.52;100371.34;313795;111;2762031;-73
2020/12/05 01:53:36;;;;;;;42.19;18.16;;;;;;;2.64;74.42;100367.13;358387;110;1962034;-73
2020/12/05 01:54:41;;;;;;;43.93;16.78;;;;;;;2.65;74.50;100371.50;359229;110;1961931;-74
2020/12/05 01:55:49;;;;;;;45.54;17.49;;;;;;;2.67;74.45;100366.01;357073;112;1961957;-73
2020/12/05 01:57:01;;;;;;;56.41;19.26;;;;;;;2.68;74.20;100365.88;358858;112;1961976;-74
2020/12/05 01:58:06;;;;;;;44.92;18.52;;;;;;;2.63;74.36;100368.95;362462;108;1960671;-78
2020/12/05 01:59:12;;;;;;;47.14;18.75;;;;;;;2.63;74.52;100374.29;363233;109;1962035;-78
2020/12/05 02:00:18;;;;;;;36.08;17.92;;;;;;;2.66;74.55;100375.00;343903;109;2254067;-78
2020/12/05 02:01:25;;;;;;;40.19;18.24;;;;;;;2.71;74.46;100372.77;336133;111;1963908;-78
2020/12/05 02:02:32;;;;;;;39.78;19.05;;;;;;;2.70;74.47;100369.27;358159;111;1963940;-78
2020/12/05 02:03:38;;;;;;;44.95;19.65;;;;;;;2.68;74.42;100371.22;338288;110;2281966;-78
2020/12/05 02:05:08;;;;;;;40.07;18.45;;;;;;;2.69;74.57;100367.55;351533;112;1964022;-79
2020/12/05 02:06:19;;;;;;;42.41;19.02;;;;;;;2.71;74.35;100365.60;359642;111;1962014;-78
2020/12/05 02:07:47;;;;;;;43.45;21.23;;;;;;;2.70;74.37;100361.26;349720;109;1962114;-78
2020/12/05 02:09:15;;;;;;;41.14;20.19;;;;;;;2.73;74.44;100358.31;356482;109;1961966;-78
2020/12/05 02:10:25;;;;;;;44.10;22.26;;;;;;;2.79;74.03;100364.91;321534;109;2679951;-78
2020/12/05 02:11:35;;;;;;;41.83;22.63;;;;;;;2.80;73.62;100367.42;314501;111;2795920;-79
2020/12/05 02:12:51;;;;;;;42.04;22.99;;;;;;;2.77;73.81;100358.87;311309;113;2679954;-76
2020/12/05 02:14:00;;;;;;;45.85;22.32;;;;;;;2.75;73.94;100363.48;312199;115;1962081;-79
2020/12/05 02:15:09;;;;;;;51.77;24.11;;;;;;;2.83;73.55;100364.51;305364;107;2727220;-79
2020/12/05 02:16:17;;;;;;;44.36;23.76;;;;;;;2.80;73.40;100372.77;325118;109;1963165;-78
2020/12/05 02:17:23;;;;;;;46.19;23.05;;;;;;;2.74;73.60;100367.98;356596;111;1961997;-77
2020/12/05 02:18:31;;;;;;;48.91;22.46;;;;;;;2.78;73.53;100372.08;348375;114;1961992;-77
2020/12/05 02:19:50;;;;;;;50.21;23.31;;;;;;;2.78;73.51;100372.08;356546;111;1961998;-78
2020/12/05 02:21:00;;;;;;;52.31;25.50;;;;;;;2.78;73.58;100374.75;359778;110;1961813;-78
2020/12/05 02:22:09;;;;;;;47.28;24.55;;;;;;;2.73;73.52;100368.98;346641;112;1961835;-78
2020/12/05 02:23:20;;;;;;;53.36;23.60;;;;;;;2.75;73.30;100383.03;320570;110;2017770;-78
2020/12/05 02:24:26;;;;;;;47.59;21.98;;;;;;;2.68;73.56;100371.22;360104;110;1962012;-77
2020/12/05 02:25:31;;;;;;;52.14;25.39;;;;;;;2.70;73.57;100381.73;359476;110;1961993;-77
2020/12/05 02:26:41;;;;;;;53.19;25.37;;;;;;;2.65;73.73;100371.50;307091;110;2142255;-77
2020/12/05 02:27:48;;;;;;;46.51;22.86;;;;;;;2.67;73.70;100374.01;357700;108;1960821;-74
2020/12/05 02:28:53;;;;;;;46.28;21.90;;;;;;;2.70;73.58;100371.93;300852;115;2694881;-74
2020/12/05 02:30:11;;;;;;;50.54;22.62;;;;;;;2.70;73.52;100361.26;322418;115;1962958;-73
2020/12/05 02:31:16;;;;;;;46.18;21.56;;;;;;;2.69;73.47;100367.55;351728;112;1962005;-73
2020/12/05 02:32:22;;;;;;;52.92;26.18;;;;;;;2.67;73.57;100369.52;358827;110;1960868;-73
2020/12/05 02:33:28;;;;;;;48.62;23.23;;;;;;;2.62;73.78;100369.11;337974;109;2373020;-74
2020/12/05 02:34:34;;;;;;;46.87;23.50;;;;;;;2.62;73.60;100369.95;345685;109;1961925;-73
2020/12/05 02:35:39;;;;;;;47.62;23.18;;;;;;;2.63;73.45;100373.45;360536;109;1962053;-74
2020/12/05 02:36:48;;;;;;;51.65;24.84;;;;;;;2.59;73.64;100374.69;362844;109;1963050;-74
2020/12/05 02:38:11;;;;;;;51.71;24.45;;;;;;;2.61;73.42;100375.41;361566;109;1961978;-73
2020/12/05 02:39:19;;;;;;;56.30;23.58;;;;;;;2.57;73.61;100380.19;309035;110;2860981;-74
2020/12/05 02:40:24;;;;;;;49.56;24.87;;;;;;;2.50;73.89;100387.03;358112;111;1964080;-73
2020/12/05 02:41:40;;;;;;;44.37;22.45;;;;;;;2.55;73.98;100384.80;355801;112;1961939;-73
2020/12/05 02:42:45;;;;;;;44.51;21.91;;;;;;;2.58;73.77;100384.52;348746;114;1962047;-73
2020/12/05 02:43:52;;;;;;;47.87;22.98;;;;;;;2.60;73.60;100385.23;307969;116;2727993;-74
2020/12/05 02:44:57;;;;;;;50.99;23.46;;;;;;;2.60;73.67;100389.73;345172;115;1964026;-74
2020/12/05 02:46:02;;;;;;;43.38;21.24;;;;;;;2.61;73.58;100389.58;345255;115;1964013;-74
2020/12/05 02:47:07;;;;;;;50.98;22.12;;;;;;;2.61;73.50;100384.25;343550;118;1961976;-74
2020/12/05 02:48:13;;;;;;;48.17;21.99;;;;;;;2.60;73.44;100387.91;343357;115;1963994;-74
2020/12/05 02:49:18;;;;;;;47.47;21.11;;;;;;;2.58;73.62;100383.69;340763;115;1961990;-73
2020/12/05 02:50:26;;;;;;;43.62;21.50;;;;;;;2.53;73.62;100384.09;296600;118;2840989;-73
2020/12/05 02:51:31;;;;;;;47.34;22.08;;;;;;;2.52;73.74;100377.08;334071;117;1965007;-73
2020/12/05 02:52:36;;;;;;;47.58;22.06;;;;;;;2.52;73.58;100379.75;343496;118;1963980;-73
2020/12/05 02:53:42;;;;;;;43.16;20.77;;;;;;;2.41;73.75;100378.03;341789;117;1963912;-74
2020/12/05 02:54:52;;;;;;;41.88;22.09;;;;;;;2.43;74.04;100380.55;343621;115;1962061;-73
2020/12/05 02:55:58;;;;;;;49.69;23.16;;;;;;;2.40;73.89;100384.33;340931;117;1962132;-73
2020/12/05 02:57:05;;;;;;;44.81;21.37;;;;;;;2.39;73.99;100387.15;307335;115;2658974;-74
2020/12/05 02:58:10;;;;;;;48.89;21.55;;;;;;;2.37;74.16;100383.77;333673;116;1962011;-74
2020/12/05 02:59:15;;;;;;;47.94;23.16;;;;;;;2.42;73.93;100381.53;337431;117;1962038;-74
2020/12/05 03:00:22;;;;;;;52.35;23.84;;;;;;;2.36;74.08;100382.09;340923;115;1962031;-74
2020/12/05 03:01:28;;;;;;;49.42;21.84;;;;;;;2.30;74.16;100386.14;343417;116;1962009;-73
2020/12/05 03:02:34;;;;;;;50.26;22.57;;;;;;;2.33;74.01;100382.34;303642;118;2726986;-74
2020/12/05 03:03:40;;;;;;;46.95;23.71;;;;;;;2.35;73.94;100383.89;315956;115;1961956;-74
2020/12/05 03:04:45;;;;;;;46.95;22.91;;;;;;;2.34;73.94;100386.70;343553;116;1961858;-74
2020/12/05 03:05:50;;;;;;;50.51;23.81;;;;;;;2.38;73.82;100388.98;344565;118;1961989;-74
2020/12/05 03:06:57;;;;;;;50.71;22.98;;;;;;;2.37;73.83;100397.94;343294;116;1961951;-73
2020/12/05 03:08:03;;;;;;;48.98;24.01;;;;;;;2.33;73.96;100393.00;302039;117;2064766;-73
2020/12/05 03:09:08;;;;;;;52.52;22.78;;;;;;;2.26;74.35;100395.38;320239;115;1962965;-74
2020/12/05 03:10:17;;;;;;;51.48;23.45;;;;;;;2.34;74.17;100389.37;343772;118;1962022;-74
2020/12/05 03:11:22;;;;;;;50.71;22.77;;;;;;;2.32;74.12;100392.16;298641;118;2102673;-74
2020/12/05 03:12:28;;;;;;;47.99;22.52;;;;;;;2.36;73.99;100398.09;339667;116;1963979;-74
2020/12/05 03:13:33;;;;;;;51.61;24.38;;;;;;;2.34;74.03;100389.37;343831;116;1963013;-73
2020/12/05 03:14:38;;;;;;;52.57;24.60;;;;;;;2.31;74.20;100390.48;343988;117;1963000;-76
2020/12/05 03:15:44;;;;;;;54.31;24.69;;;;;;;2.34;74.10;100392.87;343667;118;1961956;-74
2020/12/05 03:16:50;;;;;;;48.33;22.52;;;;;;;2.30;74.21;100390.61;341923;118;1962950;-74
2020/12/05 03:17:56;;;;;;;51.78;23.74;;;;;;;2.33;74.17;100385.87;297197;116;2857982;-74
2020/12/05 03:19:02;;;;;;;50.39;23.52;;;;;;;2.35;74.04;100385.72;311757;118;1963033;-73
2020/12/05 03:20:07;;;;;;;51.37;22.77;;;;;;;2.32;74.19;100383.33;344493;117;1962013;-73
2020/12/05 03:21:13;;;;;;;53.35;23.16;;;;;;;2.33;74.14;100383.20;344393;118;1961986;-73
2020/12/05 03:22:18;;;;;;;50.85;24.51;;;;;;;2.33;74.12;100377.88;342542;116;1963967;-74
2020/12/05 03:23:24;;;;;;;46.91;22.56;;;;;;;2.33;74.16;100380.53;343706;118;1962014;-73
2020/12/05 03:24:30;;;;;;;46.10;22.23;;;;;;;2.41;73.94;100385.20;296675;117;2833026;-73
2020/12/05 03:25:37;;;;;;;46.13;21.71;;;;;;;2.42;73.88;100386.88;343867;115;1962023;-74
2020/12/05 03:26:44;;;;;;;51.05;22.31;;;;;;;2.41;74.02;100390.53;341630;117;1962062;-74
2020/12/05 03:27:50;;;;;;;50.06;25.53;;;;;;;2.39;74.06;100387.15;305084;118;2700983;-74
2020/12/05 03:28:57;;;;;;;53.86;24.31;;;;;;;2.40;73.99;100381.66;330952;118;1961967;-74
2020/12/05 03:30:05;;;;;;;52.36;24.21;;;;;;;2.40;73.95;100386.16;343645;116;1961988;-74
2020/12/05 03:31:20;;;;;;;54.33;24.56;;;;;;;2.39;73.99;100387.15;341300;118;1961964;-74
2020/12/05 03:32:22;;;;;;;53.02;23.80;;;;;;;2.37;74.04;100386.43;326474;109;1960664;-73
2020/12/05 03:33:28;;;;;;;50.31;22.93;;;;;;;2.34;74.30;100389.37;364003;109;1962020;-76
2020/12/05 03:34:34;;;;;;;50.17;24.07;;;;;;;2.36;74.33;100390.09;329626;109;2585887;-77
2020/12/05 03:35:39;;;;;;;53.57;25.53;;;;;;;2.40;74.21;100389.66;364313;109;1961913;-77
2020/12/05 03:36:45;;;;;;;48.58;23.53;;;;;;;2.45;74.03;100393.76;364072;110;1962039;-76
2020/12/05 03:37:51;;;;;;;47.46;24.18;;;;;;;2.46;74.12;100390.09;363368;110;1962968;-75
2020/12/05 03:38:57;;;;;;;44.36;25.07;;;;;;;2.48;74.05;100386.31;364777;110;1962024;-76
2020/12/05 03:40:05;;;;;;;45.82;22.59;;;;;;;2.49;73.84;100382.69;333552;110;2516978;-77
2020/12/05 03:41:13;;;;;;;47.62;22.29;;;;;;;2.53;73.66;100378.75;363635;110;1961955;-77
2020/12/05 03:42:18;;;;;;;45.34;22.42;;;;;;;2.51;73.50;100383.37;360214;110;1962033;-76
2020/12/05 03:43:24;;;;;;;46.81;22.88;;;;;;;2.52;73.30;100384.24;363396;110;1962890;-77
2020/12/05 03:44:29;;;;;;;45.29;21.90;;;;;;;2.52;73.15;100385.08;363390;110;1961988;-76
2020/12/05 03:45:36;;;;;;;47.97;22.69;;;;;;;2.48;73.01;100388.14;363555;110;1961968;-76
2020/12/05 03:46:43;;;;;;;44.78;21.98;;;;;;;2.45;72.96;100377.76;364123;110;1961946;-77
2020/12/05 03:47:49;;;;;;;45.22;23.12;;;;;;;2.42;73.13;100381.53;363201;110;1962015;-77
2020/12/05 03:48:55;;;;;;;48.90;23.49;;;;;;;2.38;73.34;100372.98;353853;112;1962023;-78
2020/12/05 03:50:03;;;;;;;46.79;21.61;;;;;;;2.33;73.46;100382.34;336416;111;2392007;-78
2020/12/05 03:51:09;;;;;;;40.16;22.46;;;;;;;2.29;73.79;100379.11;364922;110;1961992;-77
2020/12/05 03:52:15;;;;;;;44.87;22.19;;;;;;;2.34;73.62;100378.70;365938;110;1962934;-77
2020/12/05 03:53:21;;;;;;;43.26;20.46;;;;;;;2.34;73.58;100378.70;338673;110;2440956;-78
2020/12/05 03:54:27;;;;;;;43.14;20.86;;;;;;;2.33;73.73;100372.54;345976;110;1962844;-77
2020/12/05 03:55:34;;;;;;;46.41;21.43;;;;;;;2.35;73.65;100375.05;365205;110;1961651;-78
2020/12/05 03:56:40;;;;;;;45.00;21.57;;;;;;;2.33;73.69;100377.00;333888;108;2525872;-78
2020/12/05 03:57:46;;;;;;;41.27;19.73;;;;;;;2.32;73.80;100370.00;355535;110;1960798;-77
2020/12/05 03:58:53;;;;;;;43.48;18.86;;;;;;;2.29;73.81;100371.11;352800;110;1962027;-74
2020/12/05 03:59:59;;;;;;;40.78;21.22;;;;;;;2.24;74.19;100372.50;346890;114;1962032;-74
2020/12/05 04:01:06;;;;;;;39.11;17.94;;;;;;;2.22;74.09;100372.62;286698;114;2246488;-74
2020/12/05 04:02:11;;;;;;;38.24;19.49;;;;;;;2.22;74.05;100377.95;344581;115;1963985;-75
2020/12/05 04:03:16;;;;;;;41.54;18.61;;;;;;;2.21;74.24;100368.28;345463;115;1961998;-74
2020/12/05 04:04:22;;;;;;;38.87;17.99;;;;;;;2.16;74.34;100378.50;353428;112;1962004;-73
2020/12/05 04:05:28;;;;;;;42.27;18.64;;;;;;;2.16;74.33;100373.16;352327;112;1961967;-74
2020/12/05 04:06:35;;;;;;;40.71;20.26;;;;;;;2.14;74.53;100383.11;352511;112;1962009;-74
2020/12/05 04:07:40;;;;;;;48.48;19.94;;;;;;;2.11;74.69;100378.89;353158;112;1963899;-74
2020/12/05 04:08:46;;;;;;;44.53;19.11;;;;;;;2.17;74.48;100381.04;351948;112;1961977;-73
2020/12/05 04:09:51;;;;;;;37.00;18.79;;;;;;;2.14;74.61;100375.11;352411;112;1962043;-74
2020/12/05 04:10:57;;;;;;;44.04;19.26;;;;;;;2.12;74.76;100390.42;352588;112;1961965;-74
2020/12/05 04:12:03;;;;;;;39.18;18.47;;;;;;;2.13;74.72;100376.10;315726;112;2640966;-74
2020/12/05 04:13:08;;;;;;;36.89;19.19;;;;;;;2.07;74.82;100392.64;323528;112;1961934;-74
2020/12/05 04:14:13;;;;;;;39.77;18.16;;;;;;;2.08;74.96;100386.31;347000;112;1961973;-74
2020/12/05 04:15:18;;;;;;;41.29;19.23;;;;;;;2.10;74.92;100384.38;343595;115;1963947;-74
2020/12/05 04:16:24;;;;;;;39.52;18.46;;;;;;;2.10;74.75;100387.03;343747;115;1962013;-74
2020/12/05 04:17:31;;;;;;;36.92;18.29;;;;;;;2.14;74.81;100380.45;352363;112;1961943;-74
2020/12/05 04:18:37;;;;;;;37.67;19.24;;;;;;;2.14;74.86;100383.98;324075;114;2408997;-75
2020/12/05 04:19:42;;;;;;;37.68;18.33;;;;;;;2.12;74.99;100387.75;319727;114;1961931;-74
2020/12/05 04:20:48;;;;;;;41.07;19.67;;;;;;;2.19;74.82;100384.39;353378;112;1961958;-75
2020/12/05 04:21:53;;;;;;;39.33;18.28;;;;;;;2.24;74.74;100377.83;352209;112;1962025;-75
2020/12/05 04:22:58;;;;;;;38.19;18.32;;;;;;;2.27;74.49;100380.22;351486;112;1961966;-74
2020/12/05 04:24:03;;;;;;;39.40;18.43;;;;;;;2.26;74.55;100375.87;352211;112;1962890;-74
2020/12/05 04:25:08;;;;;;;38.55;18.74;;;;;;;2.25;74.67;100375.05;352781;112;1961936;-74
2020/12/05 04:26:14;;;;;;;38.04;17.91;;;;;;;2.27;74.62;100373.06;352404;112;1962046;-74
2020/12/05 04:27:20;;;;;;;36.88;18.06;;;;;;;2.28;74.64;100365.93;334795;112;2944944;-74
2020/12/05 04:28:26;;;;;;;34.52;18.83;;;;;;;2.23;74.83;100373.48;335810;111;1963926;-74
2020/12/05 04:29:31;;;;;;;36.78;18.22;;;;;;;2.26;74.73;100374.05;339961;117;1962016;-74
2020/12/05 04:30:37;;;;;;;33.61;18.22;;;;;;;2.28;74.81;100373.93;346446;116;1961894;-74
2020/12/05 04:31:43;;;;;;;32.68;16.23;;;;;;;2.30;74.52;100369.28;348080;115;1963969;-73
2020/12/05 04:32:49;;;;;;;38.62;16.96;;;;;;;2.30;74.50;100367.48;340932;117;1963900;-74
2020/12/05 04:33:54;;;;;;;36.12;15.98;;;;;;;2.27;74.53;100373.06;304836;117;2616406;-74
2020/12/05 04:35:00;;;;;;;37.79;18.12;;;;;;;2.26;74.58;100381.21;312016;116;1961992;-73
2020/12/05 04:36:06;;;;;;;30.69;16.23;;;;;;;2.27;74.54;100375.72;345204;114;1963973;-75
2020/12/05 04:37:11;;;;;;;33.49;17.28;;;;;;;2.29;74.39;100370.27;351136;113;1962004;-73
2020/12/05 04:38:16;;;;;;;36.12;17.60;;;;;;;2.30;74.40;100377.28;352355;113;1961861;-73
2020/12/05 04:39:23;;;;;;;37.01;18.18;;;;;;;2.27;74.51;100378.39;340269;117;1963035;-74
2020/12/05 04:40:42;;;;;;;38.15;18.62;;;;;;;2.28;74.53;100377.44;311126;116;1964002;-74
2020/12/05 04:41:47;;;;;;;32.04;16.97;;;;;;;2.29;74.56;100389.77;356252;112;1961971;-74
2020/12/05 04:42:53;;;;;;;40.81;18.02;;;;;;;2.28;74.33;100374.77;331991;113;2407975;-74
2020/12/05 04:43:59;;;;;;;32.79;16.74;;;;;;;2.28;74.60;100380.09;355427;112;1962935;-74
2020/12/05 04:45:05;;;;;;;36.50;16.88;;;;;;;2.31;74.59;100378.98;355372;112;1961985;-74
2020/12/05 04:46:12;;;;;;;43.66;18.55;;;;;;;2.28;74.60;100381.92;344698;115;1961975;-73
2020/12/05 04:47:17;;;;;;;37.37;17.58;;;;;;;2.29;74.54;100388.93;325205;113;2391979;-74
2020/12/05 04:48:23;;;;;;;36.27;18.14;;;;;;;2.27;74.69;100383.72;316806;114;1962922;-74
2020/12/05 04:49:29;;;;;;;36.89;16.62;;;;;;;2.22;75.00;100377.11;349263;114;1961952;-74
2020/12/05 04:50:39;;;;;;;37.76;18.07;;;;;;;2.26;74.73;100384.72;309396;114;2703983;-74
2020/12/05 04:51:48;;;;;;;37.19;17.59;;;;;;;2.21;74.90;100389.60;343929;115;1961963;-74
2020/12/05 04:52:57;;;;;;;37.64;16.44;;;;;;;2.19;74.98;100388.88;345158;115;1961988;-74
2020/12/05 04:54:07;;;;;;;31.69;15.96;;;;;;;2.22;74.81;100393.10;345842;115;1962080;-74
2020/12/05 04:55:14;;;;;;;38.57;17.91;;;;;;;2.21;75.01;100394.94;346077;115;1962015;-74
2020/12/05 04:56:25;;;;;;;35.72;17.63;;;;;;;2.20;75.00;100385.27;301434;115;2822079;-74
2020/12/05 04:57:40;;;;;;;36.36;16.43;;;;;;;2.25;74.96;100385.70;314554;115;2534001;-74
2020/12/05 04:58:48;;;;;;;39.88;17.79;;;;;;;2.28;74.91;100384.59;301254;115;2081850;-73
2020/12/05 04:59:54;;;;;;;40.01;18.14;;;;;;;2.30;74.78;100382.61;337459;117;1962053;-74
2020/12/05 05:01:00;;;;;;;40.19;17.94;;;;;;;2.24;74.96;100389.33;327566;116;2300038;-74